Latest Coastal Weather Observations for Whyalla

IDS60701

Issued at 4:21 am CST Monday 27 June 2016 (issued every 10 minutes, with the page automatically refreshed every 10 minutes)

About coastal observations | Map of coastal stations | Coastal observations for SA | Marine services | Other Formats
Station Details ID: 018120 Name: WHYALLA AERO Lat: -33.05 Lon: 137.52 Height: 9.3 m
Data from the previous 72 hours. | See also: Recent months at Whyalla
Date/Time
CST
Temp
°C
Wind Pressure Rain since
9am
mm
Weather Cloud Vis
km
Sea
Height
m
Swell
Dir  Spd
kts
Gust
kts
hPa Trend Height
m
Period
s
Dir
27/04:00am 9.4 NW 6 8 1018.9 - 0.0 - Partly cloudy 10 - - - -
27/03:30am 9.9 NW 7 9 1018.7 - 0.0 - Partly cloudy 10 - - - -
27/03:00am 9.9 NNW 8 10 1018.6 - 0.0 - Cloudy 10 - - - -
27/02:30am 9.7 NNW 7 9 1018.7 - 0.0 - Cloudy 10 - - - -
27/02:00am 9.7 NNW 8 9 1018.8 - 0.0 - Cloudy 10 - - - -
27/01:30am 9.8 NNW 7 8 1018.7 - 0.0 - Cloudy 10 - - - -
27/01:00am 9.8 NNW 7 8 1018.5 - 0.0 - Cloudy 10 - - - -
27/12:30am 9.9 NNW 6 8 1018.5 - 0.0 - Cloudy 10 - - - -
27/12:00am 9.7 NNW 6 7 1018.5 - 0.0 - Mostly cloudy 10 - - - -
 
Date/Time
CST
Temp
°C
Wind Pressure Rain since
9am
mm
Weather Cloud Vis
km
Sea
Height
m
Swell
Dir  Spd
kts
Gust
kts
hPa Trend Height
m
Period
s
Dir
26/11:30pm 10.1 NNW 8 9 1018.3 - 0.0 - Partly cloudy 10 - - - -
26/11:00pm 10.5 N 7 9 1018.2 - 0.0 - Partly cloudy 10 - - - -
26/10:30pm 10.8 N 7 9 1018.2 - 0.0 - Partly cloudy 10 - - - -
26/10:00pm 10.7 NNW 7 8 1018.2 - 0.0 - Partly cloudy 10 - - - -
26/09:30pm 10.8 NNW 6 7 1017.9 - 0.0 - Partly cloudy 10 - - - -
26/09:00pm 10.9 NNW 7 9 1018.0 - 0.0 - Cloudy 10 - - - -
26/08:30pm 10.9 NNW 7 8 1017.7 - 0.0 - Cloudy 10 - - - -
26/08:00pm 11.0 N 5 7 1017.6 - 0.0 - Partly cloudy 10 - - - -
26/07:30pm 10.6 N 6 7 1017.3 - 0.0 - Partly cloudy 10 - - - -
26/07:00pm 10.8 NNE 4 5 1017.2 - 0.0 - Partly cloudy 10 - - - -
26/06:30pm 10.8 NNE 5 7 1017.0 - 0.0 - Partly cloudy 10 - - - -
26/06:00pm 11.5 NNE 5 6 1016.8 - 0.0 - Mostly cloudy 10 - - - -
26/05:30pm 12.3 NE 5 6 1016.4 - 0.0 - Partly cloudy 10 - - - -
26/05:00pm 12.7 NNE 6 8 1016.2 - 0.0 - Cloudy 10 - - - -
26/04:30pm 13.3 NNE 6 7 1015.9 - 0.0 - Partly cloudy 10 - - - -
26/04:00pm 13.4 N 4 7 1015.8 - 0.0 - Partly cloudy 10 - - - -
26/03:30pm 13.3 NW 9 13 1015.8 - 0.0 - Partly cloudy 10 - - - -
26/03:00pm 14.7 NNW 11 16 1015.6 - 0.0 - Cloudy 10 - - - -
26/02:30pm 14.1 NW 9 13 1015.8 - 0.0 - Partly cloudy 10 - - - -
26/02:00pm 14.3 NNW 12 15 1015.9 - 0.0 - Partly cloudy 10 - - - -
26/01:30pm 14.9 NNW 11 15 1016.3 - 0.0 - Partly cloudy 10 - - - -
26/01:00pm 14.0 NNW 13 17 1016.7 - 0.0 - Partly cloudy 10 - - - -
26/12:30pm 13.5 NNW 13 17 1017.1 - 0.0 - Partly cloudy 10 - - - -
26/12:00pm 12.9 NNW 12 15 1017.5 - 0.0 - Cloudy 10 - - - -
26/11:30am 12.7 NNW 12 16 1018.2 - 0.0 - Cloudy 10 - - - -
26/11:00am 12.3 NNW 12 17 1018.6 - 0.0 - Cloudy 10 - - - -
26/10:30am 11.8 N 13 17 1018.6 - 0.0 - Cloudy 10 - - - -
26/10:00am 11.5 N 10 15 1018.9 - 0.0 - Cloudy 10 - - - -
26/09:30am 10.3 N 7 10 1019.0 - 0.0 - Partly cloudy 10 - - - -
26/09:00am 9.2 NNW 7 11 1018.9 - 0.0 - Cloudy 10 - - - -
26/08:30am 8.5 NW 7 7 1018.9 - 0.0 - Cloudy 10 - - - -
26/08:00am 8.1 NNW 5 6 1018.8 - 0.0 - Cloudy 10 - - - -
26/07:30am 7.8 NNW 4 5 1018.8 - 0.0 - Cloudy 10 - - - -
26/07:00am 7.7 NW 5 5 1018.6 - 0.0 - Cloudy 10 - - - -
26/06:30am 7.6 NW 5 6 1018.5 - 0.0 - Partly cloudy 10 - - - -
26/06:00am 7.4 NW 4 5 1018.3 - 0.0 - Cloudy 10 - - - -
26/05:30am 7.2 NW 4 5 1018.0 - 0.0 - Cloudy 10 - - - -
26/05:00am 6.8 CALM 0 0 1017.8 - 0.0 - Partly cloudy 10 - - - -
26/04:30am 6.8 CALM 0 0 1018.0 - 0.0 - Partly cloudy 10 - - - -
26/04:00am 8.4 NNE 2 4 1018.2 - 0.0 - Partly cloudy 10 - - - -
26/03:30am 9.1 NNE 3 4 1018.7 - 0.0 - Cloudy 10 - - - -
26/03:00am 8.7 N 4 4 1019.4 - 0.0 - Cloudy 10 - - - -
26/02:30am 8.5 N 3 3 1019.7 - 0.0 - Cloudy 10 - - - -
26/02:00am 8.6 N 3 4 1019.9 - 0.0 - Cloudy 10 - - - -
26/01:30am 8.5 WNW 5 5 1019.9 - 0.0 - Cloudy 10 - - - -
26/01:00am 8.5 N 3 4 1019.5 - 0.0 - Cloudy 10 - - - -
26/12:30am 8.4 NNW 4 5 1020.2 - 0.0 - Cloudy 10 - - - -
26/12:00am 8.2 WNW 3 5 1019.7 - 0.0 - Cloudy 10 - - - -
 
Date/Time
CST
Temp
°C
Wind Pressure Rain since
9am
mm
Weather Cloud Vis
km
Sea
Height
m
Swell
Dir  Spd
kts
Gust
kts
hPa Trend Height
m
Period
s
Dir
25/11:30pm 8.3 CALM 0 0 1019.7 - 0.0 - Partly cloudy 10 - - - -
25/11:00pm 8.3 NNW 3 4 1020.1 - 0.0 - Partly cloudy 10 - - - -
25/10:30pm 9.2 CALM 0 0 1020.4 - 0.0 - Cloudy 10 - - - -
25/10:00pm 9.4 NW 4 4 1021.0 - 0.0 - Cloudy 10 - - - -
25/09:30pm 9.8 CALM 0 0 1021.0 - 0.0 - Cloudy 10 - - - -
25/09:00pm 10.2 CALM 0 0 1020.8 - 0.0 - Cloudy 10 - - - -
25/08:30pm 10.2 WNW 3 4 1020.6 - 0.0 - Cloudy 10 - - - -
25/08:00pm 10.7 CALM 0 0 1020.9 - 0.0 - Cloudy 10 - - - -
25/07:30pm 11.3 CALM 0 0 1021.7 - 0.0 - Cloudy 10 - - - -
25/07:00pm 11.7 CALM 0 3 1021.2 - 0.0 - Cloudy 10 - - - -
25/06:30pm 11.4 CALM 0 0 1021.5 - 0.0 - Cloudy 10 - - - -
25/06:00pm 11.8 CALM 0 0 1021.2 - 0.0 - Cloudy 10 - - - -
25/05:30pm 12.0 N 3 4 1021.5 - 0.0 - Cloudy 10 - - - -
25/05:00pm 12.4 N 5 7 1021.7 - 0.0 - Cloudy 10 - - - -
25/04:30pm 12.7 N 5 6 1021.2 - 0.0 - Cloudy 10 - - - -
25/04:00pm 13.0 NNW 7 9 1021.6 - 0.0 - Cloudy 10 - - - -
25/03:30pm 13.2 N 8 11 1021.9 - 0.0 - Cloudy 10 - - - -
25/03:00pm 13.3 NNW 8 10 1022.0 - 0.0 - Cloudy 10 - - - -
25/02:30pm 13.4 NNW 5 7 1022.1 - 0.0 - Cloudy 10 - - - -
25/02:00pm 13.3 NNW 5 8 1022.2 - 0.0 - Cloudy 10 - - - -
25/01:30pm 13.8 NNW 8 12 1022.5 - 0.0 - Cloudy 10 - - - -
25/01:00pm 13.6 NW 4 7 1023.0 - 0.0 - Cloudy 10 - - - -
25/12:30pm 13.0 WNW 6 8 1023.7 - 0.0 - Cloudy 10 - - - -
25/12:00pm 12.9 NW 9 11 1024.4 - 0.0 - Mostly cloudy 10 - - - -
25/11:30am 13.5 N 7 11 1024.9 - 0.0 - Partly cloudy 10 - - - -
25/11:00am 13.1 NNW 5 8 1025.2 - 0.0 - - 10 - - - -
25/10:30am 12.2 NW 5 7 1025.4 - 0.0 - - 10 - - - -
25/10:00am 11.5 NNW 4 5 1025.4 - 0.0 - - 10 - - - -
25/09:30am 10.2 NW 4 5 1025.3 - 0.0 - - 10 - - - -
25/09:00am 8.5 NW 4 6 1025.1 - 0.0 - Mostly clear 10 - - - -
25/08:30am 7.0 NW 5 6 1025.0 - 0.0 - Partly cloudy 10 - - - -
25/08:00am 5.2 NNW 7 8 1025.2 - 0.0 - Partly cloudy 10 - - - -
25/07:30am 5.4 NW 7 7 1024.9 - 0.0 - Partly cloudy 10 - - - -
25/07:00am 5.5 NW 5 5 1024.8 - 0.0 - Cloudy 10 - - - -
25/06:30am 5.7 WNW 5 5 1024.6 - 0.0 - Cloudy 10 - - - -
25/06:00am 5.7 W 5 5 1024.4 - 0.0 - Cloudy 10 - - - -
25/05:30am 6.0 WNW 5 6 1024.2 - 0.0 - Cloudy 10 - - - -
25/05:00am 6.2 NNW 3 4 1024.1 - 0.0 - Cloudy 10 - - - -
25/04:30am 5.7 NNW 4 5 1024.1 - 0.0 - Cloudy 10 - - - -
25/04:00am 5.6 NW 4 5 1024.1 - 0.0 - Cloudy 10 - - - -
25/03:30am 5.4 NW 4 6 1024.1 - 0.0 - Cloudy 10 - - - -
25/03:00am 5.1 NW 5 6 1024.0 - 0.0 - Mostly cloudy 10 - - - -
25/02:30am 5.5 N 4 5 1024.2 - 0.0 - - 10 - - - -
25/02:00am 6.0 NW 6 7 1024.2 - 0.0 - Partly cloudy 10 - - - -
25/01:30am 7.0 WNW 1 3 1024.1 - 0.0 - Cloudy 10 - - - -
25/01:00am 7.2 CALM 0 0 1024.1 - 0.0 - Cloudy 10 - - - -
25/12:30am 7.2 N 4 6 1024.1 - 0.0 - Partly cloudy 10 - - - -
25/12:00am 4.7 NW 5 5 1023.9 - 0.0 - Mostly cloudy 10 - - - -
 
Date/Time
CST
Temp
°C
Wind Pressure Rain since
9am
mm
Weather Cloud Vis
km
Sea
Height
m
Swell
Dir  Spd
kts
Gust
kts
hPa Trend Height
m
Period
s
Dir
24/11:30pm 4.2 NW 5 6 1023.9 - 0.0 - - 10 - - - -
24/11:00pm 4.6 NW 5 6 1023.8 - 0.0 - - 10 - - - -
24/10:30pm 5.1 NW 3 6 1023.7 - 0.0 - Partly cloudy 10 - - - -
24/10:00pm 5.3 NW 6 7 1023.8 - 0.0 - - 10 - - - -
24/09:30pm 5.5 NNW 6 7 1023.8 - 0.0 - - 10 - - - -
24/09:00pm 6.2 NNW 6 7 1023.9 - 0.0 - - 10 - - - -
24/08:30pm 6.7 WNW 5 5 1023.7 - 0.0 - - 10 - - - -
24/08:00pm 7.8 W 5 7 1023.4 - 0.0 - - 10 - - - -
24/07:30pm 8.2 WSW 6 7 1023.2 - 0.0 - Partly cloudy 10 - - - -
24/07:00pm 9.2 SSW 6 7 1022.8 - 0.0 - Partly cloudy 10 - - - -
24/06:30pm 9.8 SW 6 7 1022.4 - 0.0 - Partly cloudy 10 - - - -
24/06:00pm 10.2 SW 6 8 1022.0 - 0.0 - Mostly cloudy 10 - - - -
24/05:30pm 10.4 SSW 6 7 1021.7 - 0.0 - Partly cloudy 10 - - - -
24/05:00pm 11.8 SSW 5 7 1021.3 - 0.0 - Partly cloudy 10 - - - -
24/04:30pm 12.7 SSW 10 13 1020.9 - 0.0 - Partly cloudy 10 - - - -
24/04:00pm 12.3 SSW 9 11 1020.6 - 0.0 - Partly cloudy 10 - - - -
24/03:30pm 13.1 S 14 18 1020.2 - 0.0 - Partly cloudy 10 - - - -
24/03:00pm 14.4 SW 12 16 1019.9 - 0.0 - Cloudy 10 - - - -
24/02:30pm 13.6 SW 13 18 1019.5 - 0.0 - Partly cloudy 10 - - - -
24/02:00pm 13.8 SSW 12 18 1019.3 - 0.0 - Partly cloudy 10 - - - -
24/01:30pm 14.0 SSW 15 19 1019.2 - 0.0 - Partly cloudy 10 - - - -
24/01:00pm 13.3 SSW 17 22 1019.2 - 0.0 - Partly cloudy 10 - - - -
24/12:30pm 14.0 SW 14 20 1019.2 - 0.0 - Partly cloudy 10 - - - -
24/12:00pm 13.8 SW 16 21 1019.2 - 0.0 - - 10 - - - -
24/11:30am 13.1 SW 14 19 1019.5 - 0.0 - - 10 - - - -
24/11:00am 12.4 WSW 14 19 1019.5 - 0.0 - - 10 - - - -
24/10:30am 11.9 W 12 16 1019.6 - 0.0 - - 10 - - - -
24/10:00am 11.3 W 13 16 1019.5 - 0.0 - - 10 - - - -
24/09:30am 10.4 WNW 7 10 1019.0 - 0.0 - - 10 - - - -
24/09:00am 8.9 WNW 7 9 1018.4 - 3.0 - - 10 - - - -
24/08:30am 7.5 NW 6 9 1017.6 - 3.0 - - 10 - - - -
24/08:00am 5.7 NNW 8 9 1017.4 - 3.0 - - 10 - - - -
24/07:30am 5.8 WNW 7 10 1016.7 - 3.0 - - 10 - - - -
24/07:00am 6.3 WNW 8 9 1016.3 - 3.0 - - 10 - - - -
24/06:30am 6.7 WNW 8 10 1015.7 - 3.0 - - 10 - - - -
24/06:00am 6.6 NW 7 9 1015.3 - 3.0 - - 10 - - - -
24/05:30am 7.4 NW 8 10 1014.5 - 3.0 - - 10 - - - -
24/05:00am 7.6 NW 9 11 1014.0 - 3.0 - Partly cloudy 10 - - - -
24/04:30am 8.1 WNW 9 11 1013.9 - 3.0 - Partly cloudy 10 - - - -

Other Formats:

Comma delimited format used in spreadsheet applications
http://www.bom.gov.au/fwo/IDS60701/IDS60701.95664.axf

JavaScript Object Notation format (JSON) in row-major order
http://www.bom.gov.au/fwo/IDS60701/IDS60701.95664.json